sensor_id;sensor_type;location;lat;lon;timestamp;temperature;humidity
34829;DHT22;21042;47.620;12.188;2023-07-13T00:01:49;18.00;99.90
34829;DHT22;21042;47.620;12.188;2023-07-13T00:04:18;18.00;99.90
34829;DHT22;21042;47.620;12.188;2023-07-13T00:06:46;17.90;99.90
34829;DHT22;21042;47.620;12.188;2023-07-13T00:09:17;17.90;99.90
34829;DHT22;21042;47.620;12.188;2023-07-13T00:11:45;17.90;99.90
34829;DHT22;21042;47.620;12.188;2023-07-13T00:14:14;17.90;99.90
34829;DHT22;21042;47.620;12.188;2023-07-13T00:16:42;17.90;99.90
34829;DHT22;21042;47.620;12.188;2023-07-13T00:19:13;17.90;99.90
34829;DHT22;21042;47.620;12.188;2023-07-13T00:21:40;17.90;99.90
34829;DHT22;21042;47.620;12.188;2023-07-13T00:24:08;17.90;99.90
34829;DHT22;21042;47.620;12.188;2023-07-13T00:26:40;17.90;99.90
34829;DHT22;21042;47.620;12.188;2023-07-13T00:29:08;17.90;99.90
34829;DHT22;21042;47.620;12.188;2023-07-13T00:31:36;17.90;99.90
34829;DHT22;21042;47.620;12.188;2023-07-13T00:34:04;17.90;99.90
34829;DHT22;21042;47.620;12.188;2023-07-13T00:36:31;17.90;99.90
34829;DHT22;21042;47.620;12.188;2023-07-13T00:38:57;17.90;99.90
34829;DHT22;21042;47.620;12.188;2023-07-13T00:41:24;17.90;99.90
34829;DHT22;21042;47.620;12.188;2023-07-13T00:43:51;17.80;99.90
34829;DHT22;21042;47.620;12.188;2023-07-13T00:46:25;17.80;99.90
34829;DHT22;21042;47.620;12.188;2023-07-13T00:48:53;17.80;99.90
34829;DHT22;21042;47.620;12.188;2023-07-13T00:51:25;17.80;99.90
34829;DHT22;21042;47.620;12.188;2023-07-13T00:53:57;17.70;99.90
34829;DHT22;21042;47.620;12.188;2023-07-13T00:56:25;17.70;99.90
34829;DHT22;21042;47.620;12.188;2023-07-13T00:58:53;17.70;99.90
34829;DHT22;21042;47.620;12.188;2023-07-13T01:01:20;17.80;99.90
34829;DHT22;21042;47.620;12.188;2023-07-13T01:03:47;17.70;99.90
34829;DHT22;21042;47.620;12.188;2023-07-13T01:06:14;17.60;99.90
34829;DHT22;21042;47.620;12.188;2023-07-13T01:08:41;17.60;99.90
34829;DHT22;21042;47.620;12.188;2023-07-13T01:11:08;17.60;99.90
34829;DHT22;21042;47.620;12.188;2023-07-13T01:13:35;17.60;99.90
34829;DHT22;21042;47.620;12.188;2023-07-13T01:16:05;17.60;99.90
34829;DHT22;21042;47.620;12.188;2023-07-13T01:18:38;17.60;99.90
34829;DHT22;21042;47.620;12.188;2023-07-13T01:21:05;17.60;99.90
34829;DHT22;21042;47.620;12.188;2023-07-13T01:23:32;17.60;99.90
34829;DHT22;21042;47.620;12.188;2023-07-13T01:25:59;17.70;99.90
34829;DHT22;21042;47.620;12.188;2023-07-13T01:28:27;17.60;99.90
34829;DHT22;21042;47.620;12.188;2023-07-13T01:30:55;17.60;99.90
34829;DHT22;21042;47.620;12.188;2023-07-13T01:33:23;17.70;99.90
34829;DHT22;21042;47.620;12.188;2023-07-13T01:35:50;17.60;99.90
34829;DHT22;21042;47.620;12.188;2023-07-13T01:38:20;17.70;99.90
34829;DHT22;21042;47.620;12.188;2023-07-13T01:40:47;17.70;99.90
34829;DHT22;21042;47.620;12.188;2023-07-13T01:43:14;17.70;99.90
34829;DHT22;21042;47.620;12.188;2023-07-13T01:45:41;17.70;99.90
34829;DHT22;21042;47.620;12.188;2023-07-13T01:48:12;17.70;99.90
34829;DHT22;21042;47.620;12.188;2023-07-13T01:50:41;17.70;99.90
34829;DHT22;21042;47.620;12.188;2023-07-13T01:53:08;17.70;99.90
34829;DHT22;21042;47.620;12.188;2023-07-13T01:55:35;17.70;99.90
34829;DHT22;21042;47.620;12.188;2023-07-13T01:58:02;17.70;99.90
34829;DHT22;21042;47.620;12.188;2023-07-13T02:00:29;17.70;99.90
34829;DHT22;21042;47.620;12.188;2023-07-13T02:02:56;17.70;99.90
34829;DHT22;21042;47.620;12.188;2023-07-13T02:05:24;17.70;99.90
34829;DHT22;21042;47.620;12.188;2023-07-13T02:07:51;17.70;99.90
34829;DHT22;21042;47.620;12.188;2023-07-13T02:10:17;17.80;99.90
34829;DHT22;21042;47.620;12.188;2023-07-13T02:12:45;17.70;99.90
34829;DHT22;21042;47.620;12.188;2023-07-13T02:15:12;17.70;99.90
34829;DHT22;21042;47.620;12.188;2023-07-13T02:17:38;17.80;99.90
34829;DHT22;21042;47.620;12.188;2023-07-13T02:20:06;17.60;99.90
34829;DHT22;21042;47.620;12.188;2023-07-13T02:22:33;17.60;99.90
34829;DHT22;21042;47.620;12.188;2023-07-13T02:25:00;17.50;99.90
34829;DHT22;21042;47.620;12.188;2023-07-13T02:27:27;17.50;99.90
34829;DHT22;21042;47.620;12.188;2023-07-13T02:29:54;17.40;99.90
34829;DHT22;21042;47.620;12.188;2023-07-13T02:32:21;17.40;99.90
34829;DHT22;21042;47.620;12.188;2023-07-13T02:34:50;17.40;99.90
34829;DHT22;21042;47.620;12.188;2023-07-13T02:37:17;17.60;99.90
34829;DHT22;21042;47.620;12.188;2023-07-13T02:39:44;17.40;99.90
34829;DHT22;21042;47.620;12.188;2023-07-13T02:42:11;17.30;99.90
34829;DHT22;21042;47.620;12.188;2023-07-13T02:44:37;17.30;99.90
34829;DHT22;21042;47.620;12.188;2023-07-13T02:47:04;17.30;99.90
34829;DHT22;21042;47.620;12.188;2023-07-13T02:49:31;17.30;99.90
34829;DHT22;21042;47.620;12.188;2023-07-13T02:51:58;17.20;99.90
34829;DHT22;21042;47.620;12.188;2023-07-13T02:54:25;17.20;99.90
34829;DHT22;21042;47.620;12.188;2023-07-13T02:56:51;17.20;99.90
34829;DHT22;21042;47.620;12.188;2023-07-13T02:59:18;17.20;99.90
34829;DHT22;21042;47.620;12.188;2023-07-13T03:01:45;17.20;99.90
34829;DHT22;21042;47.620;12.188;2023-07-13T03:04:12;17.20;99.90
34829;DHT22;21042;47.620;12.188;2023-07-13T03:06:40;17.20;99.90
34829;DHT22;21042;47.620;12.188;2023-07-13T03:09:06;17.10;99.90
34829;DHT22;21042;47.620;12.188;2023-07-13T03:11:37;17.10;99.90
34829;DHT22;21042;47.620;12.188;2023-07-13T03:14:15;17.20;99.90
34829;DHT22;21042;47.620;12.188;2023-07-13T03:16:42;17.20;99.90
34829;DHT22;21042;47.620;12.188;2023-07-13T03:19:09;17.20;99.90
34829;DHT22;21042;47.620;12.188;2023-07-13T03:21:36;17.20;99.90
34829;DHT22;21042;47.620;12.188;2023-07-13T03:24:03;17.20;99.90
34829;DHT22;21042;47.620;12.188;2023-07-13T03:26:30;17.20;99.90
34829;DHT22;21042;47.620;12.188;2023-07-13T03:28:56;17.20;99.90
34829;DHT22;21042;47.620;12.188;2023-07-13T03:31:28;17.20;99.90
34829;DHT22;21042;47.620;12.188;2023-07-13T03:33:57;17.20;99.90
34829;DHT22;21042;47.620;12.188;2023-07-13T03:36:26;17.20;99.90
34829;DHT22;21042;47.620;12.188;2023-07-13T03:38:59;17.20;99.90
34829;DHT22;21042;47.620;12.188;2023-07-13T03:41:34;17.10;99.90
34829;DHT22;21042;47.620;12.188;2023-07-13T03:44:01;17.10;99.90
34829;DHT22;21042;47.620;12.188;2023-07-13T03:46:28;17.10;99.90
34829;DHT22;21042;47.620;12.188;2023-07-13T03:48:56;17.00;99.90
34829;DHT22;21042;47.620;12.188;2023-07-13T03:51:23;17.00;99.90
34829;DHT22;21042;47.620;12.188;2023-07-13T03:53:50;17.00;99.90
34829;DHT22;21042;47.620;12.188;2023-07-13T03:56:19;17.00;99.90
34829;DHT22;21042;47.620;12.188;2023-07-13T03:58:48;17.00;99.90
34829;DHT22;21042;47.620;12.188;2023-07-13T04:01:21;17.10;99.90
34829;DHT22;21042;47.620;12.188;2023-07-13T04:03:49;17.10;99.90
34829;DHT22;21042;47.620;12.188;2023-07-13T04:06:19;17.00;99.90
34829;DHT22;21042;47.620;12.188;2023-07-13T04:08:51;17.00;99.90
34829;DHT22;21042;47.620;12.188;2023-07-13T04:11:20;17.00;99.90
34829;DHT22;21042;47.620;12.188;2023-07-13T04:13:48;17.00;99.90
34829;DHT22;21042;47.620;12.188;2023-07-13T04:16:16;17.00;99.90
34829;DHT22;21042;47.620;12.188;2023-07-13T04:18:44;17.00;99.90
34829;DHT22;21042;47.620;12.188;2023-07-13T04:21:12;17.00;99.90
34829;DHT22;21042;47.620;12.188;2023-07-13T04:23:39;17.00;99.90
34829;DHT22;21042;47.620;12.188;2023-07-13T04:26:07;17.00;99.90
34829;DHT22;21042;47.620;12.188;2023-07-13T04:28:34;17.10;99.90
34829;DHT22;21042;47.620;12.188;2023-07-13T04:31:01;17.10;99.90
34829;DHT22;21042;47.620;12.188;2023-07-13T04:33:27;17.10;99.90
34829;DHT22;21042;47.620;12.188;2023-07-13T04:35:55;17.00;99.90
34829;DHT22;21042;47.620;12.188;2023-07-13T04:38:30;17.10;99.90
34829;DHT22;21042;47.620;12.188;2023-07-13T04:41:00;17.10;99.90
34829;DHT22;21042;47.620;12.188;2023-07-13T04:43:28;17.10;99.90
34829;DHT22;21042;47.620;12.188;2023-07-13T04:45:56;17.20;99.90
34829;DHT22;21042;47.620;12.188;2023-07-13T04:48:23;17.20;99.90
34829;DHT22;21042;47.620;12.188;2023-07-13T04:50:57;17.20;99.90
34829;DHT22;21042;47.620;12.188;2023-07-13T04:53:25;17.20;99.90
34829;DHT22;21042;47.620;12.188;2023-07-13T04:55:53;17.30;99.90
34829;DHT22;21042;47.620;12.188;2023-07-13T04:58:20;17.30;99.90
34829;DHT22;21042;47.620;12.188;2023-07-13T05:00:48;17.30;99.90
34829;DHT22;21042;47.620;12.188;2023-07-13T05:03:15;17.30;99.90
34829;DHT22;21042;47.620;12.188;2023-07-13T05:05:42;17.40;99.90
34829;DHT22;21042;47.620;12.188;2023-07-13T05:08:09;17.40;99.90
34829;DHT22;21042;47.620;12.188;2023-07-13T05:10:36;17.40;99.90
34829;DHT22;21042;47.620;12.188;2023-07-13T05:13:03;17.40;99.90
34829;DHT22;21042;47.620;12.188;2023-07-13T05:15:29;17.40;99.90
34829;DHT22;21042;47.620;12.188;2023-07-13T05:17:56;17.50;99.90
34829;DHT22;21042;47.620;12.188;2023-07-13T05:20:23;17.40;99.90
34829;DHT22;21042;47.620;12.188;2023-07-13T05:22:50;17.40;99.90
34829;DHT22;21042;47.620;12.188;2023-07-13T05:25:17;17.50;99.90
34829;DHT22;21042;47.620;12.188;2023-07-13T05:27:44;17.60;99.90
34829;DHT22;21042;47.620;12.188;2023-07-13T05:30:12;17.80;99.90
34829;DHT22;21042;47.620;12.188;2023-07-13T05:32:39;17.80;99.90
34829;DHT22;21042;47.620;12.188;2023-07-13T05:35:06;17.90;99.90
34829;DHT22;21042;47.620;12.188;2023-07-13T05:37:33;18.00;99.90
34829;DHT22;21042;47.620;12.188;2023-07-13T05:40:00;18.00;99.90
34829;DHT22;21042;47.620;12.188;2023-07-13T05:42:27;17.90;99.90
34829;DHT22;21042;47.620;12.188;2023-07-13T05:44:54;18.00;99.90
34829;DHT22;21042;47.620;12.188;2023-07-13T05:47:20;18.10;99.90
34829;DHT22;21042;47.620;12.188;2023-07-13T05:49:47;18.20;99.90
34829;DHT22;21042;47.620;12.188;2023-07-13T05:52:14;18.30;99.90
34829;DHT22;21042;47.620;12.188;2023-07-13T05:54:41;18.40;99.90
34829;DHT22;21042;47.620;12.188;2023-07-13T05:57:08;18.50;99.90
34829;DHT22;21042;47.620;12.188;2023-07-13T05:59:35;18.50;99.90
34829;DHT22;21042;47.620;12.188;2023-07-13T06:02:02;18.50;99.90
34829;DHT22;21042;47.620;12.188;2023-07-13T06:04:29;18.40;99.90
34829;DHT22;21042;47.620;12.188;2023-07-13T06:06:55;18.50;99.90
34829;DHT22;21042;47.620;12.188;2023-07-13T06:09:22;18.40;99.90
34829;DHT22;21042;47.620;12.188;2023-07-13T06:11:49;18.50;99.90
34829;DHT22;21042;47.620;12.188;2023-07-13T06:14:16;18.40;99.90
34829;DHT22;21042;47.620;12.188;2023-07-13T06:16:42;18.60;99.90
34829;DHT22;21042;47.620;12.188;2023-07-13T06:19:09;18.50;99.90
34829;DHT22;21042;47.620;12.188;2023-07-13T06:21:36;18.60;99.90
34829;DHT22;21042;47.620;12.188;2023-07-13T06:24:03;18.60;99.90
34829;DHT22;21042;47.620;12.188;2023-07-13T06:26:30;18.70;99.90
34829;DHT22;21042;47.620;12.188;2023-07-13T06:28:57;18.80;99.90
34829;DHT22;21042;47.620;12.188;2023-07-13T06:31:23;18.80;99.90
34829;DHT22;21042;47.620;12.188;2023-07-13T06:33:50;18.90;99.90
34829;DHT22;21042;47.620;12.188;2023-07-13T06:36:17;19.00;99.90
34829;DHT22;21042;47.620;12.188;2023-07-13T06:38:44;19.10;99.90
34829;DHT22;21042;47.620;12.188;2023-07-13T06:41:11;19.30;99.90
34829;DHT22;21042;47.620;12.188;2023-07-13T06:43:38;19.30;99.90
34829;DHT22;21042;47.620;12.188;2023-07-13T06:46:05;19.30;99.90
34829;DHT22;21042;47.620;12.188;2023-07-13T06:48:31;19.30;99.90
34829;DHT22;21042;47.620;12.188;2023-07-13T06:50:58;19.30;99.90
34829;DHT22;21042;47.620;12.188;2023-07-13T06:53:25;19.40;99.90
34829;DHT22;21042;47.620;12.188;2023-07-13T06:55:52;19.40;99.90
34829;DHT22;21042;47.620;12.188;2023-07-13T06:58:19;19.40;99.90
34829;DHT22;21042;47.620;12.188;2023-07-13T07:00:46;19.30;99.90
34829;DHT22;21042;47.620;12.188;2023-07-13T07:03:13;19.20;99.90
34829;DHT22;21042;47.620;12.188;2023-07-13T07:05:40;19.20;99.90
34829;DHT22;21042;47.620;12.188;2023-07-13T07:08:07;19.10;99.90
34829;DHT22;21042;47.620;12.188;2023-07-13T07:10:34;19.10;99.90
34829;DHT22;21042;47.620;12.188;2023-07-13T07:13:02;19.10;99.90
34829;DHT22;21042;47.620;12.188;2023-07-13T07:15:29;19.10;99.90
34829;DHT22;21042;47.620;12.188;2023-07-13T07:17:56;19.10;99.90
34829;DHT22;21042;47.620;12.188;2023-07-13T07:20:23;19.10;99.90
34829;DHT22;21042;47.620;12.188;2023-07-13T07:22:50;19.10;99.90
34829;DHT22;21042;47.620;12.188;2023-07-13T07:25:17;19.10;99.90
34829;DHT22;21042;47.620;12.188;2023-07-13T07:27:44;19.10;99.90
34829;DHT22;21042;47.620;12.188;2023-07-13T07:30:13;19.10;99.90
34829;DHT22;21042;47.620;12.188;2023-07-13T07:32:44;19.20;99.90
34829;DHT22;21042;47.620;12.188;2023-07-13T07:35:14;19.20;99.90
34829;DHT22;21042;47.620;12.188;2023-07-13T07:37:40;19.20;99.90
34829;DHT22;21042;47.620;12.188;2023-07-13T07:40:10;19.30;99.90
34829;DHT22;21042;47.620;12.188;2023-07-13T07:42:40;19.20;99.90
34829;DHT22;21042;47.620;12.188;2023-07-13T07:45:07;19.20;99.90
34829;DHT22;21042;47.620;12.188;2023-07-13T07:47:34;19.30;99.90
34829;DHT22;21042;47.620;12.188;2023-07-13T07:50:00;19.20;99.90
34829;DHT22;21042;47.620;12.188;2023-07-13T07:52:27;19.40;99.90
34829;DHT22;21042;47.620;12.188;2023-07-13T07:54:54;19.60;99.90
34829;DHT22;21042;47.620;12.188;2023-07-13T07:57:24;19.80;99.90
34829;DHT22;21042;47.620;12.188;2023-07-13T07:59:53;20.10;99.90
34829;DHT22;21042;47.620;12.188;2023-07-13T08:02:24;20.10;99.90
34829;DHT22;21042;47.620;12.188;2023-07-13T08:04:54;20.10;99.90
34829;DHT22;21042;47.620;12.188;2023-07-13T08:07:24;20.10;99.90
34829;DHT22;21042;47.620;12.188;2023-07-13T08:09:54;20.20;99.90
34829;DHT22;21042;47.620;12.188;2023-07-13T08:12:21;20.40;99.90
34829;DHT22;21042;47.620;12.188;2023-07-13T08:14:51;20.60;99.90
34829;DHT22;21042;47.620;12.188;2023-07-13T08:17:20;20.90;99.90
34829;DHT22;21042;47.620;12.188;2023-07-13T08:19:47;21.00;99.90
34829;DHT22;21042;47.620;12.188;2023-07-13T08:22:14;21.10;99.90
34829;DHT22;21042;47.620;12.188;2023-07-13T08:24:41;21.20;99.90
34829;DHT22;21042;47.620;12.188;2023-07-13T08:27:11;21.10;99.90
34829;DHT22;21042;47.620;12.188;2023-07-13T08:29:39;21.40;99.90
34829;DHT22;21042;47.620;12.188;2023-07-13T08:32:06;22.10;99.90
34829;DHT22;21042;47.620;12.188;2023-07-13T08:34:36;22.50;99.90
34829;DHT22;21042;47.620;12.188;2023-07-13T08:37:03;22.40;99.90
34829;DHT22;21042;47.620;12.188;2023-07-13T08:39:31;22.40;99.90
34829;DHT22;21042;47.620;12.188;2023-07-13T08:42:02;22.30;99.90
34829;DHT22;21042;47.620;12.188;2023-07-13T08:44:45;22.20;99.90
34829;DHT22;21042;47.620;12.188;2023-07-13T08:47:18;21.90;99.90
34829;DHT22;21042;47.620;12.188;2023-07-13T08:49:47;21.60;99.90
34829;DHT22;21042;47.620;12.188;2023-07-13T08:54:53;21.60;99.90
34829;DHT22;21042;47.620;12.188;2023-07-13T08:57:27;21.40;99.90
34829;DHT22;21042;47.620;12.188;2023-07-13T08:59:56;21.00;99.90
34829;DHT22;21042;47.620;12.188;2023-07-13T09:02:46;20.60;99.90
34829;DHT22;21042;47.620;12.188;2023-07-13T09:10:45;19.30;99.90
34829;DHT22;21042;47.620;12.188;2023-07-13T09:15:59;19.30;99.90
34829;DHT22;21042;47.620;12.188;2023-07-13T09:18:31;19.30;99.90
34829;DHT22;21042;47.620;12.188;2023-07-13T09:21:02;19.40;99.90
34829;DHT22;21042;47.620;12.188;2023-07-13T09:23:30;19.40;99.90
34829;DHT22;21042;47.620;12.188;2023-07-13T09:26:19;19.50;99.90
34829;DHT22;21042;47.620;12.188;2023-07-13T09:28:57;19.40;99.90
34829;DHT22;21042;47.620;12.188;2023-07-13T09:31:31;19.40;99.90
34829;DHT22;21042;47.620;12.188;2023-07-13T09:34:01;19.30;99.90
34829;DHT22;21042;47.620;12.188;2023-07-13T09:36:29;19.30;99.90
34829;DHT22;21042;47.620;12.188;2023-07-13T09:44:39;19.60;99.90
34829;DHT22;21042;47.620;12.188;2023-07-13T09:47:18;19.70;99.90
34829;DHT22;21042;47.620;12.188;2023-07-13T09:49:46;19.60;99.90
34829;DHT22;21042;47.620;12.188;2023-07-13T09:52:15;19.60;99.90
34829;DHT22;21042;47.620;12.188;2023-07-13T09:54:49;19.50;99.90
34829;DHT22;21042;47.620;12.188;2023-07-13T09:57:19;19.30;99.90
34829;DHT22;21042;47.620;12.188;2023-07-13T10:00:00;19.20;99.90
34829;DHT22;21042;47.620;12.188;2023-07-13T10:02:32;19.10;99.90
34829;DHT22;21042;47.620;12.188;2023-07-13T10:05:11;19.10;99.90
34829;DHT22;21042;47.620;12.188;2023-07-13T10:07:44;19.20;99.90
34829;DHT22;21042;47.620;12.188;2023-07-13T10:10:20;19.10;99.90
34829;DHT22;21042;47.620;12.188;2023-07-13T10:12:49;19.30;99.90
34829;DHT22;21042;47.620;12.188;2023-07-13T10:15:19;19.50;99.90
34829;DHT22;21042;47.620;12.188;2023-07-13T10:17:52;19.60;99.90
34829;DHT22;21042;47.620;12.188;2023-07-13T10:20:20;19.70;99.90
34829;DHT22;21042;47.620;12.188;2023-07-13T10:25:20;19.70;99.90
34829;DHT22;21042;47.620;12.188;2023-07-13T10:28:05;19.50;99.90
34829;DHT22;21042;47.620;12.188;2023-07-13T10:30:40;19.30;99.90
34829;DHT22;21042;47.620;12.188;2023-07-13T10:33:12;19.10;99.90
34829;DHT22;21042;47.620;12.188;2023-07-13T10:35:41;18.80;99.90
34829;DHT22;21042;47.620;12.188;2023-07-13T10:38:14;18.70;99.90
34829;DHT22;21042;47.620;12.188;2023-07-13T10:43:36;18.60;99.90
34829;DHT22;21042;47.620;12.188;2023-07-13T10:46:06;18.60;99.90
34829;DHT22;21042;47.620;12.188;2023-07-13T10:48:35;18.70;99.90
34829;DHT22;21042;47.620;12.188;2023-07-13T10:51:05;18.60;99.90
34829;DHT22;21042;47.620;12.188;2023-07-13T10:53:38;18.60;99.90
34829;DHT22;21042;47.620;12.188;2023-07-13T10:56:22;18.50;99.90
34829;DHT22;21042;47.620;12.188;2023-07-13T11:04:40;18.30;99.90
34829;DHT22;21042;47.620;12.188;2023-07-13T11:07:28;18.20;99.90
34829;DHT22;21042;47.620;12.188;2023-07-13T11:10:03;18.20;99.90
34829;DHT22;21042;47.620;12.188;2023-07-13T11:12:53;18.00;99.90
34829;DHT22;21042;47.620;12.188;2023-07-13T11:15:31;18.00;99.90
34829;DHT22;21042;47.620;12.188;2023-07-13T11:18:02;17.80;99.90
34829;DHT22;21042;47.620;12.188;2023-07-13T11:20:35;17.60;99.90
34829;DHT22;21042;47.620;12.188;2023-07-13T11:25:38;17.40;99.90
34829;DHT22;21042;47.620;12.188;2023-07-13T11:28:14;17.20;99.90
34829;DHT22;21042;47.620;12.188;2023-07-13T11:33:27;16.60;99.90
34829;DHT22;21042;47.620;12.188;2023-07-13T11:36:02;16.40;99.90
34829;DHT22;21042;47.620;12.188;2023-07-13T11:38:41;16.10;99.90
34829;DHT22;21042;47.620;12.188;2023-07-13T11:41:20;15.90;99.90
34829;DHT22;21042;47.620;12.188;2023-07-13T11:43:53;15.70;99.90
34829;DHT22;21042;47.620;12.188;2023-07-13T11:46:24;15.60;99.90
34829;DHT22;21042;47.620;12.188;2023-07-13T11:48:52;15.50;99.90
34829;DHT22;21042;47.620;12.188;2023-07-13T11:51:34;15.50;99.90
34829;DHT22;21042;47.620;12.188;2023-07-13T11:54:25;15.50;99.90
34829;DHT22;21042;47.620;12.188;2023-07-13T11:57:01;15.70;99.90
34829;DHT22;21042;47.620;12.188;2023-07-13T11:59:36;16.00;99.90
34829;DHT22;21042;47.620;12.188;2023-07-13T12:02:18;16.40;99.90
34829;DHT22;21042;47.620;12.188;2023-07-13T12:04:50;16.80;99.90
34829;DHT22;21042;47.620;12.188;2023-07-13T12:07:19;17.20;99.90
34829;DHT22;21042;47.620;12.188;2023-07-13T12:09:46;17.30;99.90
34829;DHT22;21042;47.620;12.188;2023-07-13T12:12:17;17.50;99.90
34829;DHT22;21042;47.620;12.188;2023-07-13T12:14:44;17.70;99.90
34829;DHT22;21042;47.620;12.188;2023-07-13T12:17:19;18.00;99.90
34829;DHT22;21042;47.620;12.188;2023-07-13T12:19:51;18.60;99.90
34829;DHT22;21042;47.620;12.188;2023-07-13T12:22:20;19.00;99.90
34829;DHT22;21042;47.620;12.188;2023-07-13T12:24:47;19.30;99.90
34829;DHT22;21042;47.620;12.188;2023-07-13T12:27:24;19.40;99.90
34829;DHT22;21042;47.620;12.188;2023-07-13T12:29:58;19.40;99.90
34829;DHT22;21042;47.620;12.188;2023-07-13T12:32:27;19.50;99.90
34829;DHT22;21042;47.620;12.188;2023-07-13T12:34:56;19.60;99.90
34829;DHT22;21042;47.620;12.188;2023-07-13T12:37:24;19.80;99.90
34829;DHT22;21042;47.620;12.188;2023-07-13T12:39:51;19.80;99.90
34829;DHT22;21042;47.620;12.188;2023-07-13T12:44:47;19.90;99.90
34829;DHT22;21042;47.620;12.188;2023-07-13T12:47:14;20.40;99.90
34829;DHT22;21042;47.620;12.188;2023-07-13T12:49:49;20.80;99.90
34829;DHT22;21042;47.620;12.188;2023-07-13T12:52:21;20.80;99.90
34829;DHT22;21042;47.620;12.188;2023-07-13T12:55:37;20.90;99.90
34829;DHT22;21042;47.620;12.188;2023-07-13T12:57:57;21.20;99.90
34829;DHT22;21042;47.620;12.188;2023-07-13T13:00:28;21.40;99.90
34829;DHT22;21042;47.620;12.188;2023-07-13T13:02:57;21.60;99.90
34829;DHT22;21042;47.620;12.188;2023-07-13T13:05:44;21.70;99.90
34829;DHT22;21042;47.620;12.188;2023-07-13T13:08:12;21.90;99.90
34829;DHT22;21042;47.620;12.188;2023-07-13T13:10:39;22.00;99.90
34829;DHT22;21042;47.620;12.188;2023-07-13T13:13:06;22.10;99.90
34829;DHT22;21042;47.620;12.188;2023-07-13T13:15:33;22.00;99.90
34829;DHT22;21042;47.620;12.188;2023-07-13T13:17:59;21.90;99.90
34829;DHT22;21042;47.620;12.188;2023-07-13T13:20:26;21.80;99.90
34829;DHT22;21042;47.620;12.188;2023-07-13T13:22:54;21.90;99.90
34829;DHT22;21042;47.620;12.188;2023-07-13T13:25:21;21.70;99.90
34829;DHT22;21042;47.620;12.188;2023-07-13T13:27:49;21.50;99.90
34829;DHT22;21042;47.620;12.188;2023-07-13T13:30:17;21.50;99.90
34829;DHT22;21042;47.620;12.188;2023-07-13T13:32:46;21.20;99.90
34829;DHT22;21042;47.620;12.188;2023-07-13T13:35:19;21.00;99.90
34829;DHT22;21042;47.620;12.188;2023-07-13T13:37:47;21.00;99.90
34829;DHT22;21042;47.620;12.188;2023-07-13T13:40:20;21.00;99.90
34829;DHT22;21042;47.620;12.188;2023-07-13T13:42:48;20.90;99.90
34829;DHT22;21042;47.620;12.188;2023-07-13T13:45:15;20.60;99.90
34829;DHT22;21042;47.620;12.188;2023-07-13T13:47:44;20.20;99.90
34829;DHT22;21042;47.620;12.188;2023-07-13T13:52:42;19.90;99.90
34829;DHT22;21042;47.620;12.188;2023-07-13T13:55:13;19.90;99.90
34829;DHT22;21042;47.620;12.188;2023-07-13T13:57:40;20.00;99.90
34829;DHT22;21042;47.620;12.188;2023-07-13T14:00:09;20.20;99.90
34829;DHT22;21042;47.620;12.188;2023-07-13T14:02:45;20.50;99.90
34829;DHT22;21042;47.620;12.188;2023-07-13T14:05:23;20.50;99.90
34829;DHT22;21042;47.620;12.188;2023-07-13T14:07:50;20.40;99.90
34829;DHT22;21042;47.620;12.188;2023-07-13T14:10:18;20.40;99.90
34829;DHT22;21042;47.620;12.188;2023-07-13T14:12:47;20.50;99.90
34829;DHT22;21042;47.620;12.188;2023-07-13T14:17:49;20.70;99.90
34829;DHT22;21042;47.620;12.188;2023-07-13T14:20:18;21.00;99.90
34829;DHT22;21042;47.620;12.188;2023-07-13T14:22:45;21.20;99.90
34829;DHT22;21042;47.620;12.188;2023-07-13T14:25:12;21.40;99.90
34829;DHT22;21042;47.620;12.188;2023-07-13T14:27:40;21.40;99.90
34829;DHT22;21042;47.620;12.188;2023-07-13T14:30:17;21.30;99.90
34829;DHT22;21042;47.620;12.188;2023-07-13T14:32:44;21.40;99.90
34829;DHT22;21042;47.620;12.188;2023-07-13T14:35:13;21.60;99.90
34829;DHT22;21042;47.620;12.188;2023-07-13T14:37:40;21.90;99.90
34829;DHT22;21042;47.620;12.188;2023-07-13T14:40:15;22.50;99.90
34829;DHT22;21042;47.620;12.188;2023-07-13T14:42:43;23.20;99.90
34829;DHT22;21042;47.620;12.188;2023-07-13T14:45:15;23.30;99.90
34829;DHT22;21042;47.620;12.188;2023-07-13T14:47:43;23.30;99.90
34829;DHT22;21042;47.620;12.188;2023-07-13T14:50:33;23.30;99.90
34829;DHT22;21042;47.620;12.188;2023-07-13T14:53:01;23.10;99.90
34829;DHT22;21042;47.620;12.188;2023-07-13T14:55:28;22.80;99.90
34829;DHT22;21042;47.620;12.188;2023-07-13T14:57:55;22.50;99.90
34829;DHT22;21042;47.620;12.188;2023-07-13T15:00:24;22.30;99.90
34829;DHT22;21042;47.620;12.188;2023-07-13T15:02:53;22.00;99.90
34829;DHT22;21042;47.620;12.188;2023-07-13T15:05:27;21.90;99.90
34829;DHT22;21042;47.620;12.188;2023-07-13T15:07:58;21.80;99.90
34829;DHT22;21042;47.620;12.188;2023-07-13T15:10:28;21.70;99.90
34829;DHT22;21042;47.620;12.188;2023-07-13T15:13:01;21.50;99.90
34829;DHT22;21042;47.620;12.188;2023-07-13T15:15:40;21.40;99.90
34829;DHT22;21042;47.620;12.188;2023-07-13T15:18:13;21.30;99.90
34829;DHT22;21042;47.620;12.188;2023-07-13T15:20:40;21.60;99.90
34829;DHT22;21042;47.620;12.188;2023-07-13T15:23:09;21.70;99.90
34829;DHT22;21042;47.620;12.188;2023-07-13T15:25:36;21.70;99.90
34829;DHT22;21042;47.620;12.188;2023-07-13T15:28:03;21.70;99.90
34829;DHT22;21042;47.620;12.188;2023-07-13T15:30:33;21.70;99.90
34829;DHT22;21042;47.620;12.188;2023-07-13T15:33:16;21.80;99.90
34829;DHT22;21042;47.620;12.188;2023-07-13T15:35:44;21.80;99.90
34829;DHT22;21042;47.620;12.188;2023-07-13T15:38:17;21.90;99.90
34829;DHT22;21042;47.620;12.188;2023-07-13T15:40:44;22.00;99.90
34829;DHT22;21042;47.620;12.188;2023-07-13T15:43:15;22.10;99.90
34829;DHT22;21042;47.620;12.188;2023-07-13T15:45:43;22.20;99.90
34829;DHT22;21042;47.620;12.188;2023-07-13T15:48:18;22.40;99.90
34829;DHT22;21042;47.620;12.188;2023-07-13T15:50:50;22.30;99.90
34829;DHT22;21042;47.620;12.188;2023-07-13T15:53:22;22.30;99.90
34829;DHT22;21042;47.620;12.188;2023-07-13T15:55:50;22.20;99.90
34829;DHT22;21042;47.620;12.188;2023-07-13T15:58:18;22.20;99.90
34829;DHT22;21042;47.620;12.188;2023-07-13T16:00:47;22.20;99.90
34829;DHT22;21042;47.620;12.188;2023-07-13T16:03:17;22.40;99.90
34829;DHT22;21042;47.620;12.188;2023-07-13T16:05:46;22.40;99.90
34829;DHT22;21042;47.620;12.188;2023-07-13T16:08:23;22.30;99.90
34829;DHT22;21042;47.620;12.188;2023-07-13T16:10:50;22.20;99.90